Main page
METAR-TAF:

METAR-TAF

Airports :

Skyros, Greece

Skyros Island National Airport

latitude: 38-58-03N, longitude: 024-29-14E, elevation: 13 m

METAR: missing

Time: 12:57 (09:57 UTC)

Forecast

The report was made 1 hour and 57 minutes ago, at 08:00 UTC
Forecast valid from 19 at 09 UTC to 19 at 18 UTC
Wind 15 kt from the North
Visibility 10 km or more
Few clouds at a height of 2000 ft
Temporary
from 19 at 09 UTC to 19 at 12 UTC
Wind 15 kt from the North with gusts up to 25 kt

TAF: LGSY 190800Z 1909/1918 35015KT 9999 FEW020 TEMPO 1909/1912 35015G25KT

Weather observations and forecasts of more than 4000 airports (METAR and TAF reports).

The available stations are represented by yellow and red dots on the map.

Hover mouse over dot to see the name of the station.

Then click to see weather observations and forecasts.

To change the map : click on the green buttons with a black cross to zoom in, on the green button with a dash to zoom out, or on the green arrows for adjacent maps.


METAR-TAF: